Staden, Belgium
Current Conditions -  °F | °C
As of 9:50 AM on Friday 21 Nov 2014 (Local Time) from EBOS Reporting Station
Haze Haze  
Wind Chill: 33°   Ceiling: 300
Heat Index: 39°   Visibility: 1.2mi
Dew Point: 39°   Wind: 9mph
Humidity: 100%   Direction: 90°E
Pressure: 30.15"   Gusts: NA
Location:  50.97°N, 3.01°E
Report Text: EBOS 210850Z 09008KT 2000 BR FEW002 BKN003 04/04 Q1021 TEMPO SCT003 BECMG 3000
Loading
Personal Weather Stations






























Interactive Weather Map New forecast layout! Learn more

10-Day Weather Forecast

Advertisements
Track Severe Weather on mobile